Time;durP1;ratioP1;P1;durP2;ratioP2;P2;SDS_P1;SDS_P2;PMS_P1;PMS_P2;Temp;Humidity;BMP_temperature;BMP_pressure;BME280_temperature;BME280_humidity;BME280_pressure;Samples;Min_cycle;Max_cycle;Signal;HPM_P1;HPM_P2
2023/07/23 00:01:12;;;;;;;4.40;3.65;;;;;;;;;;4989759;28;20065;-77
2023/07/23 00:03:37;;;;;;;4.20;3.50;;;;;;;;;;4990178;28;20364;-76
2023/07/23 00:06:02;;;;;;;8.70;3.72;;;;;;;;;;4991145;28;20509;-76
2023/07/23 00:08:28;;;;;;;4.53;3.72;;;;;;;;;;4990311;28;20104;-76
2023/07/23 00:10:57;;;;;;;6.50;4.40;;;;;;;;;;4990343;28;20026;-76
2023/07/23 00:13:23;;;;;;;5.80;3.92;;;;;;;;;;4989948;28;20042;-75
2023/07/23 00:15:48;;;;;;;5.32;4.10;;;;;;;;;;4990068;28;20383;-77
2023/07/23 00:18:13;;;;;;;4.07;3.40;;;;;;;;;;4990316;28;20035;-75
2023/07/23 00:20:39;;;;;;;5.72;3.50;;;;;;;;;;4991681;28;20034;-75
2023/07/23 00:23:04;;;;;;;4.88;3.80;;;;;;;;;;4972872;28;20031;-76
2023/07/23 00:25:29;;;;;;;5.00;3.45;;;;;;;;;;4990053;28;20542;-76
2023/07/23 00:27:55;;;;;;;4.70;3.33;;;;;;;;;;4990351;28;20057;-77
2023/07/23 00:30:20;;;;;;;4.82;3.30;;;;;;;;;;4990378;28;20085;-76
2023/07/23 00:32:45;;;;;;;4.45;3.47;;;;;;;;;;4990931;28;20514;-76
2023/07/23 00:35:11;;;;;;;4.75;3.60;;;;;;;;;;4993148;28;20038;-77
2023/07/23 00:37:36;;;;;;;8.98;3.30;;;;;;;;;;4993696;28;20042;-76
2023/07/23 00:40:02;;;;;;;10.55;3.78;;;;;;;;;;4994090;28;20034;-77
2023/07/23 00:42:29;;;;;;;5.18;3.72;;;;;;;;;;4993904;28;20038;-75
2023/07/23 00:44:54;;;;;;;8.40;3.67;;;;;;;;;;4994615;28;20498;-74
2023/07/23 00:47:21;;;;;;;6.90;3.67;;;;;;;;;;4994014;28;20369;-76
2023/07/23 00:49:46;;;;;;;5.10;4.05;;;;;;;;;;4994015;28;20046;-75
2023/07/23 00:52:12;;;;;;;5.82;3.85;;;;;;;;;;4993796;28;20035;-76
2023/07/23 00:54:38;;;;;;;7.53;4.43;;;;;;;;;;4976542;28;20041;-76
2023/07/23 00:57:05;;;;;;;12.63;4.22;;;;;;;;;;4993451;28;20026;-76
2023/07/23 00:59:32;;;;;;;6.70;4.03;;;;;;;;;;4994266;28;20593;-76
2023/07/23 01:01:58;;;;;;;9.20;3.53;;;;;;;;;;4993440;28;20429;-76
2023/07/23 01:04:24;;;;;;;4.80;3.70;;;;;;;;;;4992314;28;20030;-76
2023/07/23 01:06:50;;;;;;;6.45;3.97;;;;;;;;;;4993172;28;20061;-75
2023/07/23 01:09:17;;;;;;;7.70;3.92;;;;;;;;;;4993365;28;20026;-74
2023/07/23 01:11:43;;;;;;;5.22;3.80;;;;;;;;;;4992261;28;20034;-76
2023/07/23 01:14:08;;;;;;;6.88;4.32;;;;;;;;;;4993075;28;20034;-76
2023/07/23 01:16:34;;;;;;;5.38;4.03;;;;;;;;;;4992585;28;20034;-76
2023/07/23 01:18:59;;;;;;;5.35;3.83;;;;;;;;;;4993471;28;20073;-76
2023/07/23 01:21:27;;;;;;;5.55;4.10;;;;;;;;;;4993300;28;20121;-75
2023/07/23 01:23:52;;;;;;;6.85;3.83;;;;;;;;;;4993906;28;20041;-76
2023/07/23 01:26:19;;;;;;;6.80;4.15;;;;;;;;;;4992667;28;20038;-75
2023/07/23 01:28:45;;;;;;;4.63;3.75;;;;;;;;;;4993280;28;20406;-74
2023/07/23 01:31:12;;;;;;;6.28;3.75;;;;;;;;;;4976734;28;20031;-76
2023/07/23 01:33:39;;;;;;;7.07;4.47;;;;;;;;;;4993976;28;20050;-76
2023/07/23 01:36:05;;;;;;;4.90;3.30;;;;;;;;;;4993847;28;20026;-76
2023/07/23 01:38:31;;;;;;;9.60;3.70;;;;;;;;;;4994019;28;20018;-77
2023/07/23 01:40:57;;;;;;;5.82;3.70;;;;;;;;;;4976171;28;20417;-77
2023/07/23 01:43:23;;;;;;;10.35;4.30;;;;;;;;;;4992540;28;20040;-74
2023/07/23 01:45:49;;;;;;;8.20;3.72;;;;;;;;;;4993434;28;20407;-75
2023/07/23 01:48:16;;;;;;;4.72;3.90;;;;;;;;;;4994007;28;20331;-75
2023/07/23 01:50:41;;;;;;;10.18;5.38;;;;;;;;;;4993855;28;20053;-76
2023/07/23 01:53:07;;;;;;;8.30;5.00;;;;;;;;;;4975906;28;20144;-75
2023/07/23 01:55:33;;;;;;;20.58;5.60;;;;;;;;;;4993102;28;20044;-76
2023/07/23 01:57:58;;;;;;;7.18;5.40;;;;;;;;;;4975229;28;20049;-74
2023/07/23 02:00:24;;;;;;;11.05;5.90;;;;;;;;;;4992449;28;20390;-77
2023/07/23 02:02:49;;;;;;;8.82;5.32;;;;;;;;;;4993033;28;20440;-76
2023/07/23 02:05:15;;;;;;;9.82;5.05;;;;;;;;;;4992541;28;20042;-77
2023/07/23 02:07:40;;;;;;;9.32;5.90;;;;;;;;;;4991976;28;20070;-75
2023/07/23 02:10:06;;;;;;;11.35;5.32;;;;;;;;;;4992653;28;20061;-76
2023/07/23 02:12:35;;;;;;;7.72;5.03;;;;;;;;;;4992179;28;20394;-76
2023/07/23 02:15:00;;;;;;;9.35;5.55;;;;;;;;;;4991621;28;20509;-76
2023/07/23 02:17:26;;;;;;;7.63;4.75;;;;;;;;;;4991951;28;20035;-76
2023/07/23 02:19:51;;;;;;;9.02;4.88;;;;;;;;;;4992177;28;20034;-76
2023/07/23 02:22:17;;;;;;;11.88;6.50;;;;;;;;;;4992022;28;20414;-75
2023/07/23 02:24:42;;;;;;;8.73;4.30;;;;;;;;;;4992037;28;20034;-76
2023/07/23 02:27:07;;;;;;;5.78;4.47;;;;;;;;;;4991825;28;20026;-76
2023/07/23 02:29:33;;;;;;;8.20;4.70;;;;;;;;;;4992385;28;20034;-77
2023/07/23 02:31:58;;;;;;;8.82;4.60;;;;;;;;;;4991383;28;20022;-76
2023/07/23 02:34:23;;;;;;;7.93;4.28;;;;;;;;;;4991514;28;20453;-76
2023/07/23 02:36:49;;;;;;;8.70;4.65;;;;;;;;;;4991297;28;20034;-76
2023/07/23 02:39:14;;;;;;;8.48;3.85;;;;;;;;;;4991259;28;20076;-76
2023/07/23 02:41:40;;;;;;;5.28;3.95;;;;;;;;;;4980980;28;20453;-75
2023/07/23 02:44:05;;;;;;;9.48;4.07;;;;;;;;;;4991417;28;20037;-76
2023/07/23 02:46:30;;;;;;;5.30;3.90;;;;;;;;;;4991007;28;20035;-75
2023/07/23 02:48:56;;;;;;;6.45;4.15;;;;;;;;;;4991399;28;20042;-75
2023/07/23 02:51:21;;;;;;;5.47;3.92;;;;;;;;;;4990890;28;20073;-75
2023/07/23 02:53:47;;;;;;;8.63;4.22;;;;;;;;;;4992379;28;20030;-74
2023/07/23 02:56:12;;;;;;;6.55;3.72;;;;;;;;;;4990755;28;20057;-75
2023/07/23 02:58:38;;;;;;;7.05;3.80;;;;;;;;;;4991153;28;20129;-75
2023/07/23 03:01:03;;;;;;;6.35;4.10;;;;;;;;;;4990433;28;20538;-75
2023/07/23 03:03:28;;;;;;;5.50;4.10;;;;;;;;;;4990753;28;20033;-75
2023/07/23 03:05:53;;;;;;;5.50;3.88;;;;;;;;;;4991066;28;20439;-75
2023/07/23 03:08:19;;;;;;;7.13;3.80;;;;;;;;;;4990205;28;20038;-75
2023/07/23 03:10:44;;;;;;;8.45;4.07;;;;;;;;;;4990560;28;20043;-75
2023/07/23 03:13:10;;;;;;;4.75;3.42;;;;;;;;;;4990319;28;20088;-76
2023/07/23 03:15:35;;;;;;;8.13;3.55;;;;;;;;;;4990018;28;20505;-75
2023/07/23 03:18:02;;;;;;;4.63;3.45;;;;;;;;;;4990577;28;20034;-75
2023/07/23 03:20:27;;;;;;;3.92;3.28;;;;;;;;;;4990184;28;20030;-75
2023/07/23 03:22:52;;;;;;;5.70;3.58;;;;;;;;;;4990154;28;20584;-75
2023/07/23 03:25:18;;;;;;;4.97;3.40;;;;;;;;;;4976373;28;20034;-73
2023/07/23 03:27:43;;;;;;;5.93;4.13;;;;;;;;;;4990132;28;20038;-75
2023/07/23 03:30:10;;;;;;;6.15;3.80;;;;;;;;;;4990196;28;20073;-75
2023/07/23 03:32:35;;;;;;;5.43;3.75;;;;;;;;;;4990755;28;20033;-76
2023/07/23 03:35:01;;;;;;;6.72;4.65;;;;;;;;;;4990021;28;20034;-75
2023/07/23 03:37:26;;;;;;;8.30;3.90;;;;;;;;;;4972504;28;20104;-75
2023/07/23 03:39:51;;;;;;;5.82;4.20;;;;;;;;;;4989949;28;20065;-76
2023/07/23 03:42:17;;;;;;;10.65;4.30;;;;;;;;;;4989696;28;20041;-76
2023/07/23 03:44:43;;;;;;;7.00;4.38;;;;;;;;;;4990364;28;20042;-76
2023/07/23 03:47:18;;;;;;;5.55;3.85;;;;;;;;;;4989780;28;20034;-76
2023/07/23 03:49:45;;;;;;;7.75;4.13;;;;;;;;;;4989204;28;20482;-75
2023/07/23 03:52:11;;;;;;;6.80;4.00;;;;;;;;;;4989872;28;20467;-76
2023/07/23 03:54:37;;;;;;;7.28;4.20;;;;;;;;;;4989890;28;20442;-76
2023/07/23 03:57:02;;;;;;;4.47;3.60;;;;;;;;;;4990261;28;20026;-76
2023/07/23 03:59:36;;;;;;;5.50;3.70;;;;;;;;;;4990120;28;20064;-75
2023/07/23 04:02:02;;;;;;;7.30;3.83;;;;;;;;;;4989248;28;20511;-76
2023/07/23 04:04:28;;;;;;;8.93;3.63;;;;;;;;;;4981964;28;20026;-75
2023/07/23 04:06:53;;;;;;;4.18;3.05;;;;;;;;;;5007637;28;20434;-76
2023/07/23 04:09:19;;;;;;;4.18;3.47;;;;;;;;;;4992370;28;20022;-75
2023/07/23 04:11:45;;;;;;;4.90;3.08;;;;;;;;;;4994284;28;20053;-76
2023/07/23 04:14:10;;;;;;;5.22;3.10;;;;;;;;;;4976313;28;20503;-75
2023/07/23 04:16:35;;;;;;;7.43;3.35;;;;;;;;;;4995705;28;20123;-75
2023/07/23 04:19:01;;;;;;;3.70;3.03;;;;;;;;;;4993742;28;20042;-75
2023/07/23 04:21:26;;;;;;;3.90;2.63;;;;;;;;;;4993171;28;20085;-75
2023/07/23 04:23:54;;;;;;;3.28;2.72;;;;;;;;;;5009149;28;20030;-76
2023/07/23 04:26:21;;;;;;;4.05;2.70;;;;;;;;;;4993425;28;20069;-75
2023/07/23 04:28:47;;;;;;;4.80;2.90;;;;;;;;;;4993891;28;20509;-76
2023/07/23 04:31:12;;;;;;;3.60;2.90;;;;;;;;;;4993172;28;20035;-76
2023/07/23 04:33:38;;;;;;;4.22;2.30;;;;;;;;;;4993447;28;20034;-75
2023/07/23 04:36:04;;;;;;;3.08;2.30;;;;;;;;;;4993114;28;20019;-76
2023/07/23 04:38:29;;;;;;;3.58;2.50;;;;;;;;;;4994167;28;20097;-75
2023/07/23 04:40:54;;;;;;;4.60;2.85;;;;;;;;;;4992848;28;20046;-75
2023/07/23 04:43:19;;;;;;;6.35;3.15;;;;;;;;;;4976132;28;20034;-76
2023/07/23 04:45:45;;;;;;;5.30;2.80;;;;;;;;;;4992720;28;20514;-75
2023/07/23 04:48:12;;;;;;;3.70;3.22;;;;;;;;;;4993091;28;20437;-75
2023/07/23 04:50:37;;;;;;;5.38;2.92;;;;;;;;;;4993815;28;20054;-76
2023/07/23 04:53:03;;;;;;;3.85;2.90;;;;;;;;;;4993161;28;20124;-76
2023/07/23 04:55:28;;;;;;;3.25;2.70;;;;;;;;;;4993215;28;20035;-76
2023/07/23 04:57:53;;;;;;;4.25;2.90;;;;;;;;;;4992970;28;20054;-75
2023/07/23 05:00:19;;;;;;;4.00;2.75;;;;;;;;;;4992774;28;20022;-75
2023/07/23 05:02:44;;;;;;;3.58;2.67;;;;;;;;;;4993598;28;20065;-76
2023/07/23 05:05:10;;;;;;;4.93;2.65;;;;;;;;;;4993166;28;20114;-76
2023/07/23 05:07:35;;;;;;;3.33;2.75;;;;;;;;;;4992939;28;20476;-75
2023/07/23 05:10:00;;;;;;;3.55;2.70;;;;;;;;;;4993000;28;20044;-76
2023/07/23 05:12:26;;;;;;;3.35;2.53;;;;;;;;;;4993037;28;20044;-75
2023/07/23 05:14:52;;;;;;;4.13;2.85;;;;;;;;;;4993626;28;20442;-76
2023/07/23 05:17:17;;;;;;;4.25;3.13;;;;;;;;;;4992787;28;20046;-75
2023/07/23 05:19:42;;;;;;;4.35;3.05;;;;;;;;;;4989645;28;20528;-74
2023/07/23 05:22:08;;;;;;;3.88;2.90;;;;;;;;;;4991951;28;20058;-74
2023/07/23 05:24:33;;;;;;;2.85;2.55;;;;;;;;;;4988369;28;20058;-74
2023/07/23 05:26:58;;;;;;;4.93;2.50;;;;;;;;;;4977573;28;20033;-74
2023/07/23 05:29:24;;;;;;;3.67;2.67;;;;;;;;;;4977268;28;20070;-74
2023/07/23 05:31:49;;;;;;;3.80;2.70;;;;;;;;;;4979651;28;20052;-74
2023/07/23 05:34:15;;;;;;;5.13;3.15;;;;;;;;;;4990079;28;20026;-74
2023/07/23 05:36:40;;;;;;;3.50;2.90;;;;;;;;;;4990212;28;20101;-74
2023/07/23 05:39:05;;;;;;;3.58;2.53;;;;;;;;;;4983371;28;20038;-74
2023/07/23 05:41:31;;;;;;;7.40;2.95;;;;;;;;;;4975798;28;20042;-75
2023/07/23 05:43:56;;;;;;;4.82;3.03;;;;;;;;;;4978525;28;20058;-75
2023/07/23 05:46:21;;;;;;;3.50;2.83;;;;;;;;;;4987416;28;20038;-75
2023/07/23 05:48:48;;;;;;;3.38;2.38;;;;;;;;;;4986861;28;20124;-75
2023/07/23 05:51:14;;;;;;;3.83;2.90;;;;;;;;;;4986274;28;20030;-75
2023/07/23 05:53:39;;;;;;;5.00;2.50;;;;;;;;;;4988937;28;20109;-75
2023/07/23 05:56:05;;;;;;;3.13;2.60;;;;;;;;;;4986727;28;20034;-75
2023/07/23 05:58:31;;;;;;;5.88;2.45;;;;;;;;;;4986121;28;20435;-76
2023/07/23 06:00:56;;;;;;;4.43;2.95;;;;;;;;;;4988144;28;20038;-75
2023/07/23 06:03:21;;;;;;;3.17;2.50;;;;;;;;;;4988540;28;20026;-75
2023/07/23 06:05:47;;;;;;;4.78;2.40;;;;;;;;;;4989132;28;20693;-76
2023/07/23 06:08:12;;;;;;;4.95;2.58;;;;;;;;;;4988479;28;20038;-75
2023/07/23 06:10:37;;;;;;;2.58;2.22;;;;;;;;;;4988000;28;20046;-75
2023/07/23 06:13:03;;;;;;;4.75;2.55;;;;;;;;;;4987730;28;20066;-75
2023/07/23 06:15:28;;;;;;;2.80;2.60;;;;;;;;;;4986094;28;20418;-75
2023/07/23 06:17:54;;;;;;;3.72;2.58;;;;;;;;;;4992505;28;20486;-75
2023/07/23 06:20:19;;;;;;;4.10;2.58;;;;;;;;;;4990258;28;20037;-76
2023/07/23 06:22:44;;;;;;;5.53;2.53;;;;;;;;;;4992399;28;20038;-76
2023/07/23 06:25:10;;;;;;;4.43;2.65;;;;;;;;;;4988442;28;20044;-75
2023/07/23 06:27:36;;;;;;;6.65;2.53;;;;;;;;;;4993542;28;20460;-76
2023/07/23 06:30:01;;;;;;;4.97;2.38;;;;;;;;;;4991441;28;20422;-76
2023/07/23 06:32:26;;;;;;;3.25;2.42;;;;;;;;;;4991490;28;20034;-76
2023/07/23 06:34:52;;;;;;;3.72;2.50;;;;;;;;;;4990272;28;20038;-75
2023/07/23 06:37:17;;;;;;;3.83;2.72;;;;;;;;;;4993319;28;20048;-76
2023/07/23 06:39:42;;;;;;;5.55;3.00;;;;;;;;;;4989870;28;20034;-75
2023/07/23 06:42:08;;;;;;;3.63;2.72;;;;;;;;;;4991533;28;20036;-75
2023/07/23 06:44:33;;;;;;;3.88;2.63;;;;;;;;;;4992160;28;20029;-75
2023/07/23 06:46:58;;;;;;;6.05;2.90;;;;;;;;;;4989444;28;20038;-74
2023/07/23 06:49:28;;;;;;;4.93;2.63;;;;;;;;;;4973420;28;20039;-75
2023/07/23 06:51:55;;;;;;;2.92;2.50;;;;;;;;;;4991977;28;20073;-75
2023/07/23 06:54:20;;;;;;;3.65;2.70;;;;;;;;;;4994788;28;20085;-75
2023/07/23 06:56:46;;;;;;;3.50;2.85;;;;;;;;;;4992080;28;20517;-75
2023/07/23 06:59:11;;;;;;;7.32;2.90;;;;;;;;;;4990521;28;20030;-75
2023/07/23 07:01:36;;;;;;;3.10;2.80;;;;;;;;;;4989132;28;20038;-75
2023/07/23 07:04:01;;;;;;;4.03;2.75;;;;;;;;;;4988498;28;20137;-75
2023/07/23 07:06:27;;;;;;;3.80;2.72;;;;;;;;;;4985696;28;20026;-75
2023/07/23 07:08:52;;;;;;;3.50;2.50;;;;;;;;;;4987157;28;20030;-75
2023/07/23 07:11:17;;;;;;;6.13;2.80;;;;;;;;;;4985881;28;20026;-75
2023/07/23 07:13:43;;;;;;;3.22;2.85;;;;;;;;;;4984664;28;20043;-75
2023/07/23 07:16:10;;;;;;;6.68;2.90;;;;;;;;;;4985087;28;20031;-76
2023/07/23 07:18:35;;;;;;;5.28;2.83;;;;;;;;;;4984246;28;20364;-76
2023/07/23 07:21:02;;;;;;;3.55;2.72;;;;;;;;;;4985711;28;20023;-76
2023/07/23 07:23:29;;;;;;;4.82;2.60;;;;;;;;;;4971351;28;20030;-76
2023/07/23 07:25:56;;;;;;;2.47;2.28;;;;;;;;;;4985260;28;20403;-76
2023/07/23 07:28:21;;;;;;;6.82;2.50;;;;;;;;;;4971338;28;20042;-76
2023/07/23 07:30:47;;;;;;;9.95;2.53;;;;;;;;;;4978641;28;20038;-76
2023/07/23 07:33:12;;;;;;;2.72;2.45;;;;;;;;;;4986308;28;20045;-76
2023/07/23 07:35:37;;;;;;;3.58;2.80;;;;;;;;;;4981156;28;20045;-76
2023/07/23 07:38:03;;;;;;;5.65;2.97;;;;;;;;;;4988101;28;20038;-76
2023/07/23 07:40:29;;;;;;;3.45;2.35;;;;;;;;;;4993038;28;20062;-76
2023/07/23 07:42:55;;;;;;;2.80;2.60;;;;;;;;;;4985753;28;20057;-76
2023/07/23 07:45:20;;;;;;;2.67;2.35;;;;;;;;;;4984957;28;20030;-76
2023/07/23 07:47:45;;;;;;;3.10;2.70;;;;;;;;;;4985780;28;20231;-76
2023/07/23 07:50:11;;;;;;;3.42;2.47;;;;;;;;;;4988966;28;20045;-76
2023/07/23 07:52:36;;;;;;;6.68;2.70;;;;;;;;;;4988636;28;20044;-77
2023/07/23 07:55:01;;;;;;;4.25;2.70;;;;;;;;;;4987065;28;20049;-76
2023/07/23 07:57:27;;;;;;;3.22;2.20;;;;;;;;;;4986675;28;20085;-76
2023/07/23 07:59:53;;;;;;;2.40;2.20;;;;;;;;;;4985858;28;20034;-76
2023/07/23 08:02:18;;;;;;;2.95;2.65;;;;;;;;;;4973233;28;20042;-76
2023/07/23 08:04:44;;;;;;;2.40;2.10;;;;;;;;;;4973528;28;20403;-76
2023/07/23 08:07:10;;;;;;;2.50;2.30;;;;;;;;;;4973378;28;20387;-76
2023/07/23 08:09:39;;;;;;;6.78;2.42;;;;;;;;;;4973273;28;20058;-76
2023/07/23 08:12:06;;;;;;;2.60;2.40;;;;;;;;;;4980053;28;20028;-76
2023/07/23 08:14:33;;;;;;;4.13;2.97;;;;;;;;;;4988977;28;20032;-76
2023/07/23 08:16:58;;;;;;;2.28;2.08;;;;;;;;;;4972781;28;20035;-76
2023/07/23 08:19:24;;;;;;;3.13;2.00;;;;;;;;;;4983662;28;20057;-76
2023/07/23 08:21:50;;;;;;;2.22;2.03;;;;;;;;;;4984692;28;20042;-75
2023/07/23 08:24:15;;;;;;;3.25;2.33;;;;;;;;;;4986392;28;20081;-75
2023/07/23 08:26:42;;;;;;;2.13;1.98;;;;;;;;;;4978019;28;20449;-75
2023/07/23 08:29:09;;;;;;;5.53;2.22;;;;;;;;;;4966132;28;20069;-75
2023/07/23 08:31:35;;;;;;;4.50;2.22;;;;;;;;;;4981188;28;20031;-76
2023/07/23 08:34:02;;;;;;;2.45;2.10;;;;;;;;;;4983787;28;20446;-75
2023/07/23 08:36:28;;;;;;;3.20;2.40;;;;;;;;;;4968234;28;20042;-75
2023/07/23 08:38:54;;;;;;;2.75;2.53;;;;;;;;;;4984493;28;20027;-76
2023/07/23 08:41:25;;;;;;;5.03;2.50;;;;;;;;;;4986537;28;20037;-76
2023/07/23 08:44:14;;;;;;;3.17;2.72;;;;;;;;;;4984121;28;20089;-76
2023/07/23 08:46:45;;;;;;;3.22;2.92;;;;;;;;;;4964615;28;20034;-75
2023/07/23 08:49:11;;;;;;;3.10;2.67;;;;;;;;;;4975707;28;20113;-76
2023/07/23 08:51:45;;;;;;;2.45;2.25;;;;;;;;;;4986533;28;20173;-76
2023/07/23 08:54:12;;;;;;;3.13;2.75;;;;;;;;;;4980524;28;20034;-76
2023/07/23 08:56:40;;;;;;;2.53;2.30;;;;;;;;;;4987019;28;20446;-76
2023/07/23 08:59:06;;;;;;;4.78;2.90;;;;;;;;;;4976226;28;20433;-76
2023/07/23 09:01:36;;;;;;;3.60;3.20;;;;;;;;;;4988256;28;20038;-76
2023/07/23 09:04:03;;;;;;;3.88;3.47;;;;;;;;;;4990436;28;20045;-76
2023/07/23 09:06:30;;;;;;;5.43;3.00;;;;;;;;;;4989227;28;20104;-76
2023/07/23 09:09:03;;;;;;;4.93;3.00;;;;;;;;;;4989412;28;20022;-76
2023/07/23 09:11:29;;;;;;;3.22;2.78;;;;;;;;;;4956803;28;20347;-76
2023/07/23 09:13:58;;;;;;;6.05;2.92;;;;;;;;;;4973255;28;20041;-76
2023/07/23 09:16:24;;;;;;;5.90;3.10;;;;;;;;;;4982565;28;20538;-76
2023/07/23 09:18:49;;;;;;;11.45;4.38;;;;;;;;;;4989514;28;20138;-76
2023/07/23 09:21:26;;;;;;;3.42;2.97;;;;;;;;;;4989433;28;20045;-76
2023/07/23 09:23:53;;;;;;;4.15;3.20;;;;;;;;;;4989665;28;20054;-76
2023/07/23 09:26:24;;;;;;;5.43;3.30;;;;;;;;;;4988499;28;20069;-76
2023/07/23 09:28:51;;;;;;;4.40;3.22;;;;;;;;;;4989444;28;20502;-76
2023/07/23 09:31:26;;;;;;;7.50;3.22;;;;;;;;;;4995413;28;20675;-76
2023/07/23 09:33:56;;;;;;;3.05;2.75;;;;;;;;;;4984471;28;20420;-76
2023/07/23 09:36:22;;;;;;;4.88;3.35;;;;;;;;;;4975376;28;20031;-75
2023/07/23 09:38:59;;;;;;;8.77;3.22;;;;;;;;;;4991729;28;20056;-75
2023/07/23 09:41:31;;;;;;;5.13;3.45;;;;;;;;;;4988637;28;20027;-75
2023/07/23 09:43:59;;;;;;;4.40;3.05;;;;;;;;;;4988214;28;20612;-75
2023/07/23 09:46:25;;;;;;;4.88;3.22;;;;;;;;;;4988020;28;20037;-75
2023/07/23 09:48:51;;;;;;;4.78;3.40;;;;;;;;;;4989152;28;20027;-75
2023/07/23 09:51:16;;;;;;;8.35;3.78;;;;;;;;;;4987982;28;20580;-75
2023/07/23 09:53:45;;;;;;;5.60;4.05;;;;;;;;;;4989606;28;20033;-76
2023/07/23 09:56:15;;;;;;;7.22;3.40;;;;;;;;;;4988702;28;20521;-75
2023/07/23 09:58:50;;;;;;;5.80;3.83;;;;;;;;;;4986833;28;20634;-76
2023/07/23 10:01:17;;;;;;;7.00;3.88;;;;;;;;;;4981657;28;20221;-75
2023/07/23 10:03:44;;;;;;;4.95;3.33;;;;;;;;;;4987297;28;20534;-75
2023/07/23 10:06:11;;;;;;;6.30;3.80;;;;;;;;;;4974152;28;20022;-75
2023/07/23 10:08:42;;;;;;;5.93;4.47;;;;;;;;;;4980755;28;20045;-76
2023/07/23 10:11:08;;;;;;;5.30;4.13;;;;;;;;;;4975826;28;20065;-75
2023/07/23 10:13:34;;;;;;;7.35;4.63;;;;;;;;;;4961513;28;20096;-75
2023/07/23 10:16:00;;;;;;;6.55;3.88;;;;;;;;;;4964356;28;20035;-75
2023/07/23 10:18:28;;;;;;;6.60;4.40;;;;;;;;;;4973851;28;20046;-76
2023/07/23 10:20:54;;;;;;;6.80;4.47;;;;;;;;;;4981246;28;20062;-76
2023/07/23 10:23:21;;;;;;;5.05;4.13;;;;;;;;;;4986668;28;20050;-76
2023/07/23 10:25:47;;;;;;;6.07;4.18;;;;;;;;;;4986789;28;20046;-76
2023/07/23 10:28:22;;;;;;;6.10;4.32;;;;;;;;;;4985165;28;20602;-76
2023/07/23 10:30:47;;;;;;;5.03;4.32;;;;;;;;;;4972170;28;20065;-76
2023/07/23 10:33:12;;;;;;;6.53;4.32;;;;;;;;;;5002357;28;20049;-76
2023/07/23 10:35:53;;;;;;;9.45;4.57;;;;;;;;;;4987165;28;20022;-76
2023/07/23 10:38:20;;;;;;;6.40;4.43;;;;;;;;;;4984062;28;20038;-76
2023/07/23 10:40:46;;;;;;;11.75;4.13;;;;;;;;;;4987883;28;20034;-76
2023/07/23 10:43:12;;;;;;;10.85;4.90;;;;;;;;;;4986447;28;20038;-76
2023/07/23 10:45:37;;;;;;;9.38;5.18;;;;;;;;;;4987047;28;20065;-76
2023/07/23 10:48:04;;;;;;;9.52;5.15;;;;;;;;;;4986288;28;20057;-76
2023/07/23 10:50:33;;;;;;;8.02;5.15;;;;;;;;;;4973023;28;20053;-76
2023/07/23 10:53:03;;;;;;;7.88;5.03;;;;;;;;;;4984100;28;20521;-76
2023/07/23 10:55:34;;;;;;;7.13;5.28;;;;;;;;;;4987642;28;20098;-76
2023/07/23 10:58:01;;;;;;;6.68;4.60;;;;;;;;;;4988984;28;20117;-76
2023/07/23 11:00:27;;;;;;;8.07;5.13;;;;;;;;;;4987794;28;20126;-76
2023/07/23 11:02:53;;;;;;;5.75;4.47;;;;;;;;;;4979980;28;21365;-76
2023/07/23 11:05:20;;;;;;;5.85;4.78;;;;;;;;;;4983140;28;20438;-76
2023/07/23 11:08:19;;;;;;;6.90;4.80;;;;;;;;;;4987697;28;20180;-76
2023/07/23 11:10:54;;;;;;;5.95;4.85;;;;;;;;;;4987796;28;20089;-76
2023/07/23 11:13:21;;;;;;;6.15;4.55;;;;;;;;;;4987156;28;20060;-76
2023/07/23 11:15:47;;;;;;;7.43;4.32;;;;;;;;;;4987537;28;20042;-76
2023/07/23 11:18:13;;;;;;;5.93;4.75;;;;;;;;;;4986772;28;20482;-76
2023/07/23 11:20:44;;;;;;;9.57;4.18;;;;;;;;;;4987361;28;20061;-76
2023/07/23 11:23:11;;;;;;;7.47;4.68;;;;;;;;;;4987004;28;20050;-76
2023/07/23 11:25:37;;;;;;;6.10;4.72;;;;;;;;;;4986982;28;20469;-76
2023/07/23 11:28:02;;;;;;;6.53;4.40;;;;;;;;;;4971640;28;20043;-76
2023/07/23 11:30:31;;;;;;;8.43;4.30;;;;;;;;;;4986725;28;20042;-76
2023/07/23 11:32:56;;;;;;;5.90;4.63;;;;;;;;;;4971716;28;20124;-76
2023/07/23 11:35:22;;;;;;;4.45;3.60;;;;;;;;;;4977636;28;20073;-76
2023/07/23 11:37:50;;;;;;;5.78;4.57;;;;;;;;;;4972996;28;20620;-76
2023/07/23 11:40:19;;;;;;;6.88;4.50;;;;;;;;;;4987135;28;20128;-76
2023/07/23 11:42:44;;;;;;;8.32;4.63;;;;;;;;;;4974938;28;20580;-76
2023/07/23 11:45:10;;;;;;;4.90;4.40;;;;;;;;;;4972722;28;20032;-76
2023/07/23 11:47:54;;;;;;;8.05;4.80;;;;;;;;;;4973432;28;20034;-76
2023/07/23 11:50:20;;;;;;;7.03;4.68;;;;;;;;;;4972848;28;20042;-76
2023/07/23 11:52:47;;;;;;;11.55;5.15;;;;;;;;;;4974035;28;20097;-76
2023/07/23 11:55:27;;;;;;;5.40;4.40;;;;;;;;;;4972530;28;20203;-76
2023/07/23 11:57:57;;;;;;;6.20;4.75;;;;;;;;;;4971756;28;20039;-76
2023/07/23 12:00:36;;;;;;;5.57;4.95;;;;;;;;;;4991325;28;20026;-76
2023/07/23 12:03:05;;;;;;;6.40;4.60;;;;;;;;;;4985444;28;20038;-76
2023/07/23 12:05:31;;;;;;;8.80;4.68;;;;;;;;;;4986261;28;20096;-76
2023/07/23 12:07:57;;;;;;;5.35;4.28;;;;;;;;;;4986118;28;20438;-76
2023/07/23 12:10:25;;;;;;;7.03;4.80;;;;;;;;;;4986195;28;20122;-76
2023/07/23 12:12:51;;;;;;;7.50;4.50;;;;;;;;;;4986821;28;20490;-76
2023/07/23 12:15:17;;;;;;;5.60;4.38;;;;;;;;;;4970991;28;20089;-76
2023/07/23 12:17:44;;;;;;;6.68;4.68;;;;;;;;;;4987620;28;20054;-76
2023/07/23 12:20:16;;;;;;;7.47;4.55;;;;;;;;;;4986535;28;20161;-76
2023/07/23 12:22:52;;;;;;;5.05;4.25;;;;;;;;;;4984964;28;20733;-76
2023/07/23 12:25:17;;;;;;;7.68;4.28;;;;;;;;;;4987067;28;20100;-76
2023/07/23 12:27:43;;;;;;;5.30;4.22;;;;;;;;;;4985981;28;20046;-75
2023/07/23 12:30:08;;;;;;;6.63;4.13;;;;;;;;;;4988214;28;20023;-76
2023/07/23 12:32:36;;;;;;;6.03;4.22;;;;;;;;;;4992370;28;20508;-75
2023/07/23 12:35:02;;;;;;;7.03;4.68;;;;;;;;;;4978121;28;20090;-76
2023/07/23 12:37:27;;;;;;;4.80;4.30;;;;;;;;;;4977109;28;20411;-75
2023/07/23 12:39:55;;;;;;;7.90;4.70;;;;;;;;;;4977426;28;20038;-76
2023/07/23 12:42:21;;;;;;;5.45;4.32;;;;;;;;;;4980083;28;20108;-77
2023/07/23 12:44:47;;;;;;;5.07;3.88;;;;;;;;;;4981218;28;20457;-75
2023/07/23 12:47:12;;;;;;;5.35;4.22;;;;;;;;;;4990505;28;20033;-74
2023/07/23 12:49:38;;;;;;;7.32;4.40;;;;;;;;;;4990659;28;20038;-75
2023/07/23 12:52:04;;;;;;;6.30;4.70;;;;;;;;;;4974001;28;20034;-75
2023/07/23 12:54:30;;;;;;;5.15;4.10;;;;;;;;;;4989523;28;20121;-75
2023/07/23 12:56:55;;;;;;;7.10;4.50;;;;;;;;;;4976926;28;20605;-75
2023/07/23 12:59:21;;;;;;;4.93;4.15;;;;;;;;;;4988576;28;20073;-75
2023/07/23 13:01:46;;;;;;;5.13;4.10;;;;;;;;;;4988589;28;20038;-75
2023/07/23 13:04:12;;;;;;;5.72;4.32;;;;;;;;;;4974235;28;20137;-75
2023/07/23 13:06:37;;;;;;;5.75;4.10;;;;;;;;;;4989945;28;20038;-75
2023/07/23 13:09:02;;;;;;;4.65;4.10;;;;;;;;;;4990208;28;20019;-75
2023/07/23 13:11:28;;;;;;;7.68;4.45;;;;;;;;;;4985412;28;20038;-75
2023/07/23 13:13:53;;;;;;;7.28;4.20;;;;;;;;;;4976647;28;20064;-75
2023/07/23 13:16:18;;;;;;;5.50;4.03;;;;;;;;;;4978316;28;20040;-77
2023/07/23 13:18:44;;;;;;;8.02;4.35;;;;;;;;;;4958946;28;20041;-77
2023/07/23 13:21:09;;;;;;;6.47;4.25;;;;;;;;;;4976568;28;20045;-76
2023/07/23 13:23:35;;;;;;;5.97;4.22;;;;;;;;;;4982973;28;20042;-76
2023/07/23 13:26:00;;;;;;;10.65;4.15;;;;;;;;;;4974643;28;20139;-76
2023/07/23 13:28:25;;;;;;;6.97;4.50;;;;;;;;;;4981672;28;20102;-76
2023/07/23 13:30:51;;;;;;;6.18;4.28;;;;;;;;;;4971724;28;20042;-76
2023/07/23 13:33:17;;;;;;;6.28;4.80;;;;;;;;;;4988046;28;20537;-76
2023/07/23 13:35:43;;;;;;;5.05;4.18;;;;;;;;;;4989399;28;20030;-76
2023/07/23 13:38:09;;;;;;;5.00;4.13;;;;;;;;;;4990242;28;20038;-76
2023/07/23 13:40:35;;;;;;;5.38;4.32;;;;;;;;;;4988079;28;20135;-76
2023/07/23 13:43:00;;;;;;;5.22;4.22;;;;;;;;;;4989270;28;20046;-76
2023/07/23 13:45:25;;;;;;;4.90;4.20;;;;;;;;;;4974496;28;20104;-75
2023/07/23 13:47:50;;;;;;;6.03;4.20;;;;;;;;;;5005734;28;20026;-75
2023/07/23 13:50:16;;;;;;;6.88;4.35;;;;;;;;;;4988905;28;20591;-75
2023/07/23 13:52:41;;;;;;;8.23;4.30;;;;;;;;;;4988881;28;20042;-75
2023/07/23 13:55:07;;;;;;;6.78;4.22;;;;;;;;;;4988785;28;20038;-75
2023/07/23 13:57:33;;;;;;;10.25;4.30;;;;;;;;;;4989854;28;20114;-75
2023/07/23 13:59:58;;;;;;;9.32;4.95;;;;;;;;;;4990493;28;20101;-75
2023/07/23 14:02:25;;;;;;;4.93;4.07;;;;;;;;;;4990409;28;20103;-76
2023/07/23 14:04:50;;;;;;;7.85;4.25;;;;;;;;;;4988398;28;20041;-76
2023/07/23 14:07:17;;;;;;;8.98;4.45;;;;;;;;;;4989176;28;20031;-75
2023/07/23 14:09:42;;;;;;;13.48;4.90;;;;;;;;;;4973278;28;20030;-76
2023/07/23 14:12:08;;;;;;;6.85;4.10;;;;;;;;;;4984186;28;20065;-76
2023/07/23 14:14:33;;;;;;;5.63;4.30;;;;;;;;;;4989827;28;20037;-76
2023/07/23 14:16:58;;;;;;;9.77;4.50;;;;;;;;;;4988570;28;20043;-76
2023/07/23 14:19:23;;;;;;;6.22;4.55;;;;;;;;;;4988143;28;20093;-76
2023/07/23 14:21:49;;;;;;;5.43;4.13;;;;;;;;;;4979374;28;20147;-76
2023/07/23 14:24:18;;;;;;;6.53;4.05;;;;;;;;;;4980098;28;20022;-76
2023/07/23 14:26:43;;;;;;;11.18;4.60;;;;;;;;;;4989887;28;20026;-76
2023/07/23 14:29:08;;;;;;;7.82;5.65;;;;;;;;;;4988973;28;20525;-75
2023/07/23 14:31:34;;;;;;;7.13;4.72;;;;;;;;;;4987462;28;20398;-76
2023/07/23 14:33:59;;;;;;;8.23;5.10;;;;;;;;;;4988588;28;20034;-76
2023/07/23 14:36:26;;;;;;;5.47;4.65;;;;;;;;;;4980529;28;20041;-76
2023/07/23 14:38:51;;;;;;;12.82;5.90;;;;;;;;;;4988143;28;20022;-75